This is the latest recevied weather packets stored in our database for station/object CE4ERM-13. If no packets are shown the sender has not sent any weather packets the latest 10 day(s).
| Time | Temp. | Humidity | Pressure | Rain* | Wind** | Luminosity | Snow |
|---|---|---|---|---|---|---|---|
| 1777567456 | 23.33° C | 43% | 1015.6 hPa | - | - | - | - |
| 1777566995 | 31.67° C | 30% | 1015.4 hPa | - | - | - | - |
| 1777566855 | 23.33° C | 43% | 1014.5 hPa | - | - | - | - |
| 1777566394 | 31.67° C | 30% | 1013.8 hPa | - | - | - | - |
| 1777566254 | 23.33° C | 44% | 1014.8 hPa | - | - | - | - |
| 1777565862 | 30° C | 33% | 1014.6 hPa | - | - | - | - |
| 1777565794 | 30° C | 33% | 1014.6 hPa | - | - | - | - |
| 1777565654 | 22.78° C | 44% | 1016.3 hPa | - | - | - | - |
| 1777565054 | 22.78° C | 45% | 1015.5 hPa | - | - | - | - |
| 1777564593 | 28.33° C | 34% | 1014.7 hPa | - | - | - | - |
| 1777564453 | 22.78° C | 45% | 1015.7 hPa | - | - | - | - |
| 1777563853 | 22.22° C | 45% | 1014.7 hPa | - | - | - | - |
| 1777563390 | 29.44° C | 32% | 1014.5 hPa | - | - | - | - |
| 1777562652 | 21.67° C | 46% | 1015.5 hPa | - | - | - | - |
| 1777562190 | 27.78° C | 36% | 1014.9 hPa | - | - | - | - |
| 1777562052 | 21.11° C | 47% | 1016.5 hPa | - | - | - | - |
| 1777561451 | 21.11° C | 47% | 1016.9 hPa | - | - | - | - |
| 1777560990 | 25.56° C | 38% | 1014.7 hPa | - | - | - | - |
| 1777560852 | 20.56° C | 48% | 1016.3 hPa | - | - | - | - |
| 1777560390 | 27.78° C | 35% | 1014.7 hPa | - | - | - | - |
| 1777560252 | 20° C | 49% | 1015.2 hPa | - | - | - | - |
| 1777559789 | 27.22° C | 34% | 1013.7 hPa | - | - | - | - |
| 1777559651 | 20° C | 52% | 1010.4 hPa | - | - | - | - |
| 1777559050 | 20° C | 56% | 1015.8 hPa | - | - | - | - |
| 1777558588 | 25° C | 37% | 1013.5 hPa | - | - | - | - |
* Rain since midnight (hover to see other rain measurements)
** Current wind speed in m/s (hover to see current wind gust speed)